Ensign — WBN3012 — position and weather

sailwx.info

Track history (hours):
 
Tides and Currents Weather Stations Pressure Air Temp Water Temp Dewpoint Dewpoint Depression Visibility Wind Speed Wind Dir Waves Ship Positions

Ensign

Owner: Crowley Puerto Rico Services, Inc., Jacksonville, FL. More information available from US FCC via Universal Licensing System and Coast Guard Vessel Documentation Center.

Last reported at 2018-May-26 11:01 UTC. Time now 2018-Jun-24 14:33 UTC.
Position N 38°42' W 074°58'.
Warning: this ship's position is 29 days out of date.

Length 40 m; draft 5.2 m.

Type: Towing. MMSI: 366766850.

Date/timePositionNaut miles runAvg speedWind from/ knotsBaromVisibWave heightAir tempDewpointWater temp
2018-May-26 11:01N 38°42' W 074°58'0 9.7
2018-May-26 11:00N 38°42' W 074°58'17 8.0
2018-May-26 08:51N 38°58' W 075°07'3 8.3
2018-May-26 08:30N 39°01' W 075°09'4 8.9
2018-May-26 08:00N 39°05' W 075°11'5 9.4
2018-May-26 07:30N 39°09' W 075°14'510.6
2018-May-26 07:00N 39°13' W 075°18'612.0
2018-May-26 06:30N 39°18' W 075°23'1312.6
2018-May-26 05:30N 39°27' W 075°34'611.8
2018-May-26 05:00N 39°33' W 075°32'510.5
2018-May-26 04:30N 39°38' W 075°34'510.5
2018-May-26 04:00N 39°43' W 075°31'5 9.7
2018-May-26 03:30N 39°47' W 075°27'5 9.1
2018-May-26 03:00N 39°50' W 075°22'2 3.8
2018-May-26 02:28N 39°51' W 075°20'0 0.0
2018-May-26 01:58N 39°51' W 075°20'0 0.0
2018-May-26 01:28N 39°51' W 075°20'0 0.0
2018-May-26 00:58N 39°51' W 075°20'0 0.0
2018-May-26 00:28N 39°51' W 075°20'0 0.0
2018-May-26 00:01N 39°51' W 075°20'0 0.0
2018-May-25 23:30N 39°51' W 075°20'5 9.8
2018-May-25 23:00N 39°52' W 075°14'3 5.5
2018-May-25 22:30N 39°54' W 075°12'0 0.0
2018-May-25 22:00N 39°54' W 075°12'0 0.0
2018-May-25 21:30N 39°54' W 075°12'0 0.0
2018-May-25 21:00N 39°54' W 075°12'0 0.0
2018-May-25 20:30N 39°54' W 075°12'0 0.0
2018-May-25 20:00N 39°54' W 075°12'0 0.0
2018-May-25 19:30N 39°54' W 075°12'0 0.0
2018-May-25 19:00N 39°54' W 075°12'0 0.0
2018-May-25 18:30N 39°54' W 075°12'0 0.0
2018-May-25 17:57N 39°54' W 075°12'0 0.0
2018-May-25 17:30N 39°54' W 075°12'0 0.0
2018-May-25 17:00N 39°54' W 075°12'0 0.0
2018-May-25 16:30N 39°54' W 075°12'0 0.0
2018-May-25 16:00N 39°54' W 075°12'0 0.0
2018-May-25 15:30N 39°54' W 075°12'0 0.0
2018-May-25 15:00N 39°54' W 075°12'0 0.0
2018-May-25 14:30N 39°54' W 075°12'0 0.0
2018-May-25 14:00N 39°54' W 075°12'0 0.0
2018-May-25 13:30N 39°54' W 075°12'0 0.0
2018-May-25 13:00N 39°54' W 075°12'0 0.0
2018-May-25 12:30N 39°54' W 075°12'0 0.0
2018-May-25 12:00N 39°54' W 075°12'0 0.0
2018-May-25 11:27N 39°54' W 075°12'0 0.0
2018-May-25 10:57N 39°54' W 075°12'0 0.0
2018-May-25 10:30N 39°54' W 075°12'0 0.0
2018-May-25 10:00N 39°54' W 075°12'0 0.0
2018-May-25 09:30N 39°54' W 075°12'0 0.0
2018-May-25 09:00N 39°54' W 075°12'0 0.0
2018-May-25 08:27N 39°54' W 075°12'0 0.0
2018-May-25 08:00N 39°54' W 075°12'0 0.0
2018-May-25 07:30N 39°54' W 075°12'0 0.0
2018-May-25 07:00N 39°54' W 075°12'0 0.0
2018-May-25 06:30N 39°54' W 075°12'0 0.0
2018-May-25 06:00N 39°54' W 075°12'0 0.0
2018-May-25 05:30N 39°54' W 075°12'0 0.0
2018-May-25 05:00N 39°54' W 075°12'0 0.0
2018-May-25 04:30N 39°54' W 075°12'0 0.0
2018-May-25 03:57N 39°54' W 075°12'0 0.0
2018-May-25 03:27N 39°54' W 075°12'0 0.0
2018-May-25 03:00N 39°54' W 075°12'0 0.0
2018-May-25 02:30N 39°54' W 075°12'0 0.0
2018-May-25 02:00N 39°54' W 075°12'0 0.0
2018-May-25 01:30N 39°54' W 075°12'0 0.0
2018-May-25 01:00N 39°54' W 075°12'0 0.0
2018-May-25 00:30N 39°54' W 075°12'0 0.0
2018-May-25 00:00N 39°54' W 075°12'0 0.0
2018-May-24 23:30N 39°54' W 075°12'0 0.0
2018-May-24 23:00N 39°54' W 075°12'0 0.0
2018-May-24 22:30N 39°54' W 075°12'0 0.1
2018-May-24 22:01N 39°54' W 075°12'4 8.2
2018-May-24 21:30N 39°51' W 075°16'3 5.2
2018-May-24 21:00N 39°51' W 075°19'1 1.8
2018-May-24 20:30N 39°51' W 075°20'0 0.0
2018-May-24 20:00N 39°51' W 075°20'0 0.0
2018-May-24 19:30N 39°51' W 075°20'0 0.0
2018-May-24 19:00N 39°51' W 075°20'0 0.3
2018-May-24 18:30N 39°51' W 075°21'2 3.3
2018-May-24 18:00N 39°50' W 075°22'4 8.6
2018-May-24 17:30N 39°47' W 075°27'4 8.6
2018-May-24 17:00N 39°44' W 075°30'4 8.4
2018-May-24 16:30N 39°40' W 075°32'4 7.9
2018-May-24 16:00N 39°37' W 075°35'4 8.4
2018-May-24 15:30N 39°33' W 075°33'4 8.5
2018-May-24 15:00N 39°28' W 075°34'4 8.5
2018-May-24 14:30N 39°25' W 075°31'5 9.1
2018-May-24 14:00N 39°22' W 075°27'5 9.1
2018-May-24 13:30N 39°18' W 075°23'43 9.6
2018-May-24 09:00N 38°42' W 074°53'510.9
2018-May-24 08:31N 38°37' W 074°49'  
Track history (hours):
 
Tides and Currents Weather Stations Pressure Air Temp Water Temp Dewpoint Dewpoint Depression Visibility Wind Speed Wind Dir Waves Ship Positions

Ensign

Owner: Crowley Puerto Rico Services, Inc., Jacksonville, FL. More information available from US FCC via Universal Licensing System and Coast Guard Vessel Documentation Center.

Last reported at 2018-May-26 11:01 UTC. Time now 2018-Jun-24 14:33 UTC.
Position N 38°42' W 074°58'.
Warning: this ship's position is 29 days out of date.

Length 40 m; draft 5.2 m.

Type: Towing. MMSI: 366766850.

Date/timePositionNaut miles runAvg speedWind from/ knotsBaromVisibWave heightAir tempDewpointWater temp
2018-May-26 11:01N 38°42' W 074°58'0 9.7
2018-May-26 11:00N 38°42' W 074°58'17 8.0
2018-May-26 08:51N 38°58' W 075°07'3 8.3
2018-May-26 08:30N 39°01' W 075°09'4 8.9
2018-May-26 08:00N 39°05' W 075°11'5 9.4
2018-May-26 07:30N 39°09' W 075°14'510.6
2018-May-26 07:00N 39°13' W 075°18'612.0
2018-May-26 06:30N 39°18' W 075°23'1312.6
2018-May-26 05:30N 39°27' W 075°34'611.8
2018-May-26 05:00N 39°33' W 075°32'510.5
2018-May-26 04:30N 39°38' W 075°34'510.5
2018-May-26 04:00N 39°43' W 075°31'5 9.7
2018-May-26 03:30N 39°47' W 075°27'5 9.1
2018-May-26 03:00N 39°50' W 075°22'2 3.8
2018-May-26 02:28N 39°51' W 075°20'0 0.0
2018-May-26 01:58N 39°51' W 075°20'0 0.0
2018-May-26 01:28N 39°51' W 075°20'0 0.0
2018-May-26 00:58N 39°51' W 075°20'0 0.0
2018-May-26 00:28N 39°51' W 075°20'0 0.0
2018-May-26 00:01N 39°51' W 075°20'0 0.0
2018-May-25 23:30N 39°51' W 075°20'5 9.8
2018-May-25 23:00N 39°52' W 075°14'3 5.5
2018-May-25 22:30N 39°54' W 075°12'0 0.0
2018-May-25 22:00N 39°54' W 075°12'0 0.0
2018-May-25 21:30N 39°54' W 075°12'0 0.0
2018-May-25 21:00N 39°54' W 075°12'0 0.0
2018-May-25 20:30N 39°54' W 075°12'0 0.0
2018-May-25 20:00N 39°54' W 075°12'0 0.0
2018-May-25 19:30N 39°54' W 075°12'0 0.0
2018-May-25 19:00N 39°54' W 075°12'0 0.0
2018-May-25 18:30N 39°54' W 075°12'0 0.0
2018-May-25 17:57N 39°54' W 075°12'0 0.0
2018-May-25 17:30N 39°54' W 075°12'0 0.0
2018-May-25 17:00N 39°54' W 075°12'0 0.0
2018-May-25 16:30N 39°54' W 075°12'0 0.0
2018-May-25 16:00N 39°54' W 075°12'0 0.0
2018-May-25 15:30N 39°54' W 075°12'0 0.0
2018-May-25 15:00N 39°54' W 075°12'0 0.0
2018-May-25 14:30N 39°54' W 075°12'0 0.0
2018-May-25 14:00N 39°54' W 075°12'0 0.0
2018-May-25 13:30N 39°54' W 075°12'0 0.0
2018-May-25 13:00N 39°54' W 075°12'0 0.0
2018-May-25 12:30N 39°54' W 075°12'0 0.0
2018-May-25 12:00N 39°54' W 075°12'0 0.0
2018-May-25 11:27N 39°54' W 075°12'0 0.0
2018-May-25 10:57N 39°54' W 075°12'0 0.0
2018-May-25 10:30N 39°54' W 075°12'0 0.0
2018-May-25 10:00N 39°54' W 075°12'0 0.0
2018-May-25 09:30N 39°54' W 075°12'0 0.0
2018-May-25 09:00N 39°54' W 075°12'0 0.0
2018-May-25 08:27N 39°54' W 075°12'0 0.0
2018-May-25 08:00N 39°54' W 075°12'0 0.0
2018-May-25 07:30N 39°54' W 075°12'0 0.0
2018-May-25 07:00N 39°54' W 075°12'0 0.0
2018-May-25 06:30N 39°54' W 075°12'0 0.0
2018-May-25 06:00N 39°54' W 075°12'0 0.0
2018-May-25 05:30N 39°54' W 075°12'0 0.0
2018-May-25 05:00N 39°54' W 075°12'0 0.0
2018-May-25 04:30N 39°54' W 075°12'0 0.0
2018-May-25 03:57N 39°54' W 075°12'0 0.0
2018-May-25 03:27N 39°54' W 075°12'0 0.0
2018-May-25 03:00N 39°54' W 075°12'0 0.0
2018-May-25 02:30N 39°54' W 075°12'0 0.0
2018-May-25 02:00N 39°54' W 075°12'0 0.0
2018-May-25 01:30N 39°54' W 075°12'0 0.0
2018-May-25 01:00N 39°54' W 075°12'0 0.0
2018-May-25 00:30N 39°54' W 075°12'0 0.0
2018-May-25 00:00N 39°54' W 075°12'0 0.0
2018-May-24 23:30N 39°54' W 075°12'0 0.0
2018-May-24 23:00N 39°54' W 075°12'0 0.0
2018-May-24 22:30N 39°54' W 075°12'0 0.1
2018-May-24 22:01N 39°54' W 075°12'4 8.2
2018-May-24 21:30N 39°51' W 075°16'3 5.2
2018-May-24 21:00N 39°51' W 075°19'1 1.8
2018-May-24 20:30N 39°51' W 075°20'0 0.0
2018-May-24 20:00N 39°51' W 075°20'0 0.0
2018-May-24 19:30N 39°51' W 075°20'0 0.0
2018-May-24 19:00N 39°51' W 075°20'0 0.3
2018-May-24 18:30N 39°51' W 075°21'2 3.3
2018-May-24 18:00N 39°50' W 075°22'4 8.6
2018-May-24 17:30N 39°47' W 075°27'4 8.6
2018-May-24 17:00N 39°44' W 075°30'4 8.4
2018-May-24 16:30N 39°40' W 075°32'4 7.9
2018-May-24 16:00N 39°37' W 075°35'4 8.4
2018-May-24 15:30N 39°33' W 075°33'4 8.5
2018-May-24 15:00N 39°28' W 075°34'4 8.5
2018-May-24 14:30N 39°25' W 075°31'5 9.1
2018-May-24 14:00N 39°22' W 075°27'5 9.1
2018-May-24 13:30N 39°18' W 075°23'43 9.6
2018-May-24 09:00N 38°42' W 074°53'510.9
2018-May-24 08:31N 38°37' W 074°49'  

Dump ship's entire track history